sensor_id;sensor_type;location;lat;lon;timestamp;temperature;humidity
38221;DHT22;24023;51.280;7.148;2022-08-01T00:00:11;19.5;99.9
38221;DHT22;24023;51.280;7.148;2022-08-01T00:05:08;19.5;99.9
38221;DHT22;24023;51.280;7.148;2022-08-01T00:10:10;19.5;99.9
38221;DHT22;24023;51.280;7.148;2022-08-01T00:15:10;19.5;99.9
38221;DHT22;24023;51.280;7.148;2022-08-01T00:20:10;19.5;99.9
38221;DHT22;24023;51.280;7.148;2022-08-01T00:25:07;19.5;99.9
38221;DHT22;24023;51.280;7.148;2022-08-01T00:30:10;19.5;99.9
38221;DHT22;24023;51.280;7.148;2022-08-01T00:35:07;19.5;99.9
38221;DHT22;24023;51.280;7.148;2022-08-01T00:40:08;19.3;99.9
38221;DHT22;24023;51.280;7.148;2022-08-01T00:45:11;19.3;99.9
38221;DHT22;24023;51.280;7.148;2022-08-01T00:50:09;19.4;99.9
38221;DHT22;24023;51.280;7.148;2022-08-01T00:55:08;19.4;99.9
38221;DHT22;24023;51.280;7.148;2022-08-01T01:00:12;19.4;99.9
38221;DHT22;24023;51.280;7.148;2022-08-01T01:05:07;19.4;99.9
38221;DHT22;24023;51.280;7.148;2022-08-01T01:10:14;19.3;99.9
38221;DHT22;24023;51.280;7.148;2022-08-01T01:15:10;19.3;99.9
38221;DHT22;24023;51.280;7.148;2022-08-01T01:20:12;19.4;99.9
38221;DHT22;24023;51.280;7.148;2022-08-01T01:25:18;19.4;99.9
38221;DHT22;24023;51.280;7.148;2022-08-01T01:30:09;19.4;99.9
38221;DHT22;24023;51.280;7.148;2022-08-01T01:35:10;19.4;99.9
38221;DHT22;24023;51.280;7.148;2022-08-01T01:40:11;19.4;99.9
38221;DHT22;24023;51.280;7.148;2022-08-01T01:45:10;19.4;99.9
38221;DHT22;24023;51.280;7.148;2022-08-01T01:50:09;19.4;99.9
38221;DHT22;24023;51.280;7.148;2022-08-01T01:55:08;19.4;99.9
38221;DHT22;24023;51.280;7.148;2022-08-01T02:00:13;19.4;99.9
38221;DHT22;24023;51.280;7.148;2022-08-01T02:05:09;19.4;99.9
38221;DHT22;24023;51.280;7.148;2022-08-01T02:10:10;19.4;99.9
38221;DHT22;24023;51.280;7.148;2022-08-01T02:15:11;19.3;99.9
38221;DHT22;24023;51.280;7.148;2022-08-01T02:20:09;19.3;99.9
38221;DHT22;24023;51.280;7.148;2022-08-01T02:25:11;19.3;99.9
38221;DHT22;24023;51.280;7.148;2022-08-01T02:30:12;19.4;99.9
38221;DHT22;24023;51.280;7.148;2022-08-01T02:35:11;19.4;99.9
38221;DHT22;24023;51.280;7.148;2022-08-01T02:40:09;19.2;99.9
38221;DHT22;24023;51.280;7.148;2022-08-01T02:45:12;19.2;99.9
38221;DHT22;24023;51.280;7.148;2022-08-01T02:50:10;19.2;99.9
38221;DHT22;24023;51.280;7.148;2022-08-01T02:55:07;19.2;99.9
38221;DHT22;24023;51.280;7.148;2022-08-01T03:00:12;19.3;99.9
38221;DHT22;24023;51.280;7.148;2022-08-01T03:05:10;19.3;99.9
38221;DHT22;24023;51.280;7.148;2022-08-01T03:10:08;19.3;99.9
38221;DHT22;24023;51.280;7.148;2022-08-01T03:15:09;19.3;99.9
38221;DHT22;24023;51.280;7.148;2022-08-01T03:20:11;19.3;99.9
38221;DHT22;24023;51.280;7.148;2022-08-01T03:25:08;19.3;99.9
38221;DHT22;24023;51.280;7.148;2022-08-01T03:30:12;19.3;99.9
38221;DHT22;24023;51.280;7.148;2022-08-01T03:35:07;19.3;99.9
38221;DHT22;24023;51.280;7.148;2022-08-01T03:40:11;19.2;99.9
38221;DHT22;24023;51.280;7.148;2022-08-01T03:45:14;19.2;99.9
38221;DHT22;24023;51.280;7.148;2022-08-01T03:50:09;19.3;99.9
38221;DHT22;24023;51.280;7.148;2022-08-01T03:55:07;19.3;99.9
38221;DHT22;24023;51.280;7.148;2022-08-01T04:00:12;19.3;99.9
38221;DHT22;24023;51.280;7.148;2022-08-01T04:05:07;19.3;99.9
38221;DHT22;24023;51.280;7.148;2022-08-01T04:10:08;19.3;99.9
38221;DHT22;24023;51.280;7.148;2022-08-01T04:15:08;19.3;99.9
38221;DHT22;24023;51.280;7.148;2022-08-01T04:20:09;19.3;99.9
38221;DHT22;24023;51.280;7.148;2022-08-01T04:25:12;19.3;99.9
38221;DHT22;24023;51.280;7.148;2022-08-01T04:30:10;19.3;99.9
38221;DHT22;24023;51.280;7.148;2022-08-01T04:35:08;19.3;99.9
38221;DHT22;24023;51.280;7.148;2022-08-01T04:40:08;19.4;99.9
38221;DHT22;24023;51.280;7.148;2022-08-01T04:45:10;19.4;99.9
38221;DHT22;24023;51.280;7.148;2022-08-01T04:50:09;19.4;99.9
38221;DHT22;24023;51.280;7.148;2022-08-01T04:55:07;19.4;99.9
38221;DHT22;24023;51.280;7.148;2022-08-01T05:00:12;19.6;99.9
38221;DHT22;24023;51.280;7.148;2022-08-01T05:05:08;19.6;99.9
38221;DHT22;24023;51.280;7.148;2022-08-01T05:10:09;19.6;99.9
38221;DHT22;24023;51.280;7.148;2022-08-01T05:15:08;19.6;99.9
38221;DHT22;24023;51.280;7.148;2022-08-01T05:20:10;19.5;99.9
38221;DHT22;24023;51.280;7.148;2022-08-01T05:25:07;19.5;99.9
38221;DHT22;24023;51.280;7.148;2022-08-01T05:30:10;19.5;99.9
38221;DHT22;24023;51.280;7.148;2022-08-01T05:35:08;19.5;99.9
38221;DHT22;24023;51.280;7.148;2022-08-01T05:40:09;19.5;99.9
38221;DHT22;24023;51.280;7.148;2022-08-01T05:45:10;19.6;99.9
38221;DHT22;24023;51.280;7.148;2022-08-01T05:50:08;19.7;99.9
38221;DHT22;24023;51.280;7.148;2022-08-01T05:55:07;19.7;99.9
38221;DHT22;24023;51.280;7.148;2022-08-01T06:00:12;19.8;99.9
38221;DHT22;24023;51.280;7.148;2022-08-01T06:05:07;19.8;99.9
38221;DHT22;24023;51.280;7.148;2022-08-01T06:10:08;19.9;99.9
38221;DHT22;24023;51.280;7.148;2022-08-01T06:15:09;19.9;99.9
38221;DHT22;24023;51.280;7.148;2022-08-01T06:20:09;19.9;99.9
38221;DHT22;24023;51.280;7.148;2022-08-01T06:25:08;19.9;99.9
38221;DHT22;24023;51.280;7.148;2022-08-01T06:30:10;20.1;99.8
38221;DHT22;24023;51.280;7.148;2022-08-01T06:35:07;20.1;99.8
38221;DHT22;24023;51.280;7.148;2022-08-01T06:40:10;19.9;99.9
38221;DHT22;24023;51.280;7.148;2022-08-01T06:45:12;19.9;99.9
38221;DHT22;24023;51.280;7.148;2022-08-01T06:50:10;19.9;99.9
38221;DHT22;24023;51.280;7.148;2022-08-01T06:55:07;19.9;99.9
38221;DHT22;24023;51.280;7.148;2022-08-01T07:00:13;19.9;99.7
38221;DHT22;24023;51.280;7.148;2022-08-01T07:05:07;19.9;99.7
38221;DHT22;24023;51.280;7.148;2022-08-01T07:10:09;20.0;98.1
38221;DHT22;24023;51.280;7.148;2022-08-01T07:15:10;20.0;98.1
38221;DHT22;24023;51.280;7.148;2022-08-01T07:20:10;20.2;98.3
38221;DHT22;24023;51.280;7.148;2022-08-01T07:25:07;20.2;98.3
38221;DHT22;24023;51.280;7.148;2022-08-01T07:30:11;20.2;98.3
38221;DHT22;24023;51.280;7.148;2022-08-01T07:35:07;20.2;98.0
38221;DHT22;24023;51.280;7.148;2022-08-01T07:40:09;20.2;98.0
38221;DHT22;24023;51.280;7.148;2022-08-01T07:45:11;20.4;98.5
38221;DHT22;24023;51.280;7.148;2022-08-01T07:50:08;20.4;98.0
38221;DHT22;24023;51.280;7.148;2022-08-01T07:55:08;20.4;98.0
38221;DHT22;24023;51.280;7.148;2022-08-01T08:00:12;21.0;95.1
38221;DHT22;24023;51.280;7.148;2022-08-01T08:05:08;21.0;97.5
38221;DHT22;24023;51.280;7.148;2022-08-01T08:10:08;20.9;95.7
38221;DHT22;24023;51.280;7.148;2022-08-01T08:15:09;20.9;95.7
38221;DHT22;24023;51.280;7.148;2022-08-01T08:20:08;21.2;98.0
38221;DHT22;24023;51.280;7.148;2022-08-01T08:25:07;21.5;94.6
38221;DHT22;24023;51.280;7.148;2022-08-01T08:30:12;21.2;96.9
38221;DHT22;24023;51.280;7.148;2022-08-01T08:35:08;21.2;96.9
38221;DHT22;24023;51.280;7.148;2022-08-01T08:40:09;21.3;94.8
38221;DHT22;24023;51.280;7.148;2022-08-01T08:45:11;21.5;94.0
38221;DHT22;24023;51.280;7.148;2022-08-01T08:50:08;22.0;96.1
38221;DHT22;24023;51.280;7.148;2022-08-01T08:55:07;21.8;94.0
38221;DHT22;24023;51.280;7.148;2022-08-01T09:00:14;21.3;96.2
38221;DHT22;24023;51.280;7.148;2022-08-01T09:05:08;21.3;96.2
38221;DHT22;24023;51.280;7.148;2022-08-01T09:10:08;21.8;93.8
38221;DHT22;24023;51.280;7.148;2022-08-01T09:15:09;21.8;93.8
38221;DHT22;24023;51.280;7.148;2022-08-01T09:20:22;21.2;95.4
38221;DHT22;24023;51.280;7.148;2022-08-01T09:25:09;21.2;95.4
38221;DHT22;24023;51.280;7.148;2022-08-01T09:30:11;21.2;95.4
38221;DHT22;24023;51.280;7.148;2022-08-01T09:35:23;21.2;95.2
38221;DHT22;24023;51.280;7.148;2022-08-01T09:40:09;21.2;95.2
38221;DHT22;24023;51.280;7.148;2022-08-01T09:45:09;20.9;97.3
38221;DHT22;24023;51.280;7.148;2022-08-01T09:50:08;20.9;97.3
38221;DHT22;24023;51.280;7.148;2022-08-01T09:55:07;22.5;93.0
38221;DHT22;24023;51.280;7.148;2022-08-01T10:00:17;22.5;93.0
38221;DHT22;24023;51.280;7.148;2022-08-01T10:05:09;22.5;93.0
38221;DHT22;24023;51.280;7.148;2022-08-01T10:10:10;22.0;91.5
38221;DHT22;24023;51.280;7.148;2022-08-01T10:15:08;22.0;94.2
38221;DHT22;24023;51.280;7.148;2022-08-01T10:20:09;22.2;91.6
38221;DHT22;24023;51.280;7.148;2022-08-01T10:25:07;22.2;91.6
38221;DHT22;24023;51.280;7.148;2022-08-01T10:30:11;23.3;90.6
38221;DHT22;24023;51.280;7.148;2022-08-01T10:35:07;23.9;88.4
38221;DHT22;24023;51.280;7.148;2022-08-01T10:40:11;24.3;86.8
38221;DHT22;24023;51.280;7.148;2022-08-01T10:45:13;24.4;84.9
38221;DHT22;24023;51.280;7.148;2022-08-01T10:50:15;24.4;84.5
38221;DHT22;24023;51.280;7.148;2022-08-01T10:55:08;24.5;84.7
38221;DHT22;24023;51.280;7.148;2022-08-01T11:00:17;23.6;86.1
38221;DHT22;24023;51.280;7.148;2022-08-01T11:05:11;23.3;88.5
38221;DHT22;24023;51.280;7.148;2022-08-01T11:10:18;24.1;84.9
38221;DHT22;24023;51.280;7.148;2022-08-01T11:15:24;24.4;79.3
38221;DHT22;24023;51.280;7.148;2022-08-01T11:20:10;24.8;79.8
38221;DHT22;24023;51.280;7.148;2022-08-01T11:25:07;26.0;77.1
38221;DHT22;24023;51.280;7.148;2022-08-01T11:30:22;26.4;77.4
38221;DHT22;24023;51.280;7.148;2022-08-01T11:35:06;26.7;77.8
38221;DHT22;24023;51.280;7.148;2022-08-01T11:40:16;26.6;71.9
38221;DHT22;24023;51.280;7.148;2022-08-01T11:45:10;25.8;74.2
38221;DHT22;24023;51.280;7.148;2022-08-01T11:50:29;25.5;77.7
38221;DHT22;24023;51.280;7.148;2022-08-01T11:55:09;26.0;75.6
38221;DHT22;24023;51.280;7.148;2022-08-01T12:00:14;26.2;74.2
38221;DHT22;24023;51.280;7.148;2022-08-01T12:05:08;26.7;71.9
38221;DHT22;24023;51.280;7.148;2022-08-01T12:10:11;27.0;67.4
38221;DHT22;24023;51.280;7.148;2022-08-01T12:15:09;26.8;73.3
38221;DHT22;24023;51.280;7.148;2022-08-01T12:20:10;26.2;75.8
38221;DHT22;24023;51.280;7.148;2022-08-01T12:25:09;25.1;76.6
38221;DHT22;24023;51.280;7.148;2022-08-01T12:30:11;25.1;79.5
38221;DHT22;24023;51.280;7.148;2022-08-01T12:35:09;24.2;81.7
38221;DHT22;24023;51.280;7.148;2022-08-01T12:40:12;24.2;81.7
38221;DHT22;24023;51.280;7.148;2022-08-01T12:45:13;24.8;81.6
38221;DHT22;24023;51.280;7.148;2022-08-01T12:50:12;25.8;79.1
38221;DHT22;24023;51.280;7.148;2022-08-01T12:55:09;26.1;73.0
38221;DHT22;24023;51.280;7.148;2022-08-01T13:00:15;26.2;76.2
38221;DHT22;24023;51.280;7.148;2022-08-01T13:05:07;26.4;73.1
38221;DHT22;24023;51.280;7.148;2022-08-01T13:10:09;26.0;73.3
38221;DHT22;24023;51.280;7.148;2022-08-01T13:15:26;25.3;75.6
38221;DHT22;24023;51.280;7.148;2022-08-01T13:20:09;24.7;77.2
38221;DHT22;24023;51.280;7.148;2022-08-01T13:25:11;25.7;74.7
38221;DHT22;24023;51.280;7.148;2022-08-01T13:30:11;26.0;73.5
38221;DHT22;24023;51.280;7.148;2022-08-01T13:35:08;25.2;76.9
38221;DHT22;24023;51.280;7.148;2022-08-01T13:40:10;25.2;76.9
38221;DHT22;24023;51.280;7.148;2022-08-01T13:45:10;24.9;76.8
38221;DHT22;24023;51.280;7.148;2022-08-01T13:50:09;26.2;74.0
38221;DHT22;24023;51.280;7.148;2022-08-01T13:55:07;26.4;71.6
38221;DHT22;24023;51.280;7.148;2022-08-01T14:00:12;25.3;73.5
38221;DHT22;24023;51.280;7.148;2022-08-01T14:05:07;24.6;76.3
38221;DHT22;24023;51.280;7.148;2022-08-01T14:10:09;24.6;76.3
38221;DHT22;24023;51.280;7.148;2022-08-01T14:15:08;24.0;78.5
38221;DHT22;24023;51.280;7.148;2022-08-01T14:20:10;24.3;79.8
38221;DHT22;24023;51.280;7.148;2022-08-01T14:25:07;24.3;79.8
38221;DHT22;24023;51.280;7.148;2022-08-01T14:30:12;24.3;79.8
38221;DHT22;24023;51.280;7.148;2022-08-01T14:35:07;24.7;79.1
38221;DHT22;24023;51.280;7.148;2022-08-01T14:40:10;24.7;79.1
38221;DHT22;24023;51.280;7.148;2022-08-01T14:45:11;25.1;76.0
38221;DHT22;24023;51.280;7.148;2022-08-01T14:50:10;25.1;76.0
38221;DHT22;24023;51.280;7.148;2022-08-01T14:55:09;25.1;76.0
38221;DHT22;24023;51.280;7.148;2022-08-01T15:00:12;25.3;76.8
38221;DHT22;24023;51.280;7.148;2022-08-01T15:05:07;25.3;76.8
38221;DHT22;24023;51.280;7.148;2022-08-01T15:10:08;24.6;79.5
38221;DHT22;24023;51.280;7.148;2022-08-01T15:15:08;24.6;79.5
38221;DHT22;24023;51.280;7.148;2022-08-01T15:20:08;23.8;81.2
38221;DHT22;24023;51.280;7.148;2022-08-01T15:25:07;24.0;79.1
38221;DHT22;24023;51.280;7.148;2022-08-01T15:30:10;24.0;79.1
38221;DHT22;24023;51.280;7.148;2022-08-01T15:35:07;24.0;78.3
38221;DHT22;24023;51.280;7.148;2022-08-01T15:40:08;23.8;81.4
38221;DHT22;24023;51.280;7.148;2022-08-01T15:45:10;23.8;81.4
38221;DHT22;24023;51.280;7.148;2022-08-01T15:50:08;24.5;78.4
38221;DHT22;24023;51.280;7.148;2022-08-01T15:55:07;24.8;78.9
38221;DHT22;24023;51.280;7.148;2022-08-01T16:00:12;24.9;76.7
38221;DHT22;24023;51.280;7.148;2022-08-01T16:05:08;24.9;76.7
38221;DHT22;24023;51.280;7.148;2022-08-01T16:10:09;24.4;76.1
38221;DHT22;24023;51.280;7.148;2022-08-01T16:15:09;24.4;76.1
38221;DHT22;24023;51.280;7.148;2022-08-01T16:20:10;23.9;80.3
38221;DHT22;24023;51.280;7.148;2022-08-01T16:25:07;23.9;80.3
38221;DHT22;24023;51.280;7.148;2022-08-01T16:30:10;24.3;77.4
38221;DHT22;24023;51.280;7.148;2022-08-01T16:35:07;24.3;77.4
38221;DHT22;24023;51.280;7.148;2022-08-01T16:40:08;24.3;77.4
38221;DHT22;24023;51.280;7.148;2022-08-01T16:45:11;23.4;78.3
38221;DHT22;24023;51.280;7.148;2022-08-01T16:50:09;23.4;80.4
38221;DHT22;24023;51.280;7.148;2022-08-01T16:55:07;23.4;80.4
38221;DHT22;24023;51.280;7.148;2022-08-01T17:00:13;23.3;80.6
38221;DHT22;24023;51.280;7.148;2022-08-01T17:05:08;23.3;80.6
38221;DHT22;24023;51.280;7.148;2022-08-01T17:10:09;23.3;80.6
38221;DHT22;24023;51.280;7.148;2022-08-01T17:15:09;22.8;81.0
38221;DHT22;24023;51.280;7.148;2022-08-01T17:20:10;22.7;81.5
38221;DHT22;24023;51.280;7.148;2022-08-01T17:25:07;22.7;81.5
38221;DHT22;24023;51.280;7.148;2022-08-01T17:30:10;22.6;84.6
38221;DHT22;24023;51.280;7.148;2022-08-01T17:35:07;22.7;82.2
38221;DHT22;24023;51.280;7.148;2022-08-01T17:40:11;22.7;82.2
38221;DHT22;24023;51.280;7.148;2022-08-01T17:45:12;22.5;83.8
38221;DHT22;24023;51.280;7.148;2022-08-01T17:50:10;22.5;83.8
38221;DHT22;24023;51.280;7.148;2022-08-01T17:55:07;22.4;81.7
38221;DHT22;24023;51.280;7.148;2022-08-01T18:00:11;22.1;84.4
38221;DHT22;24023;51.280;7.148;2022-08-01T18:05:07;22.1;84.4
38221;DHT22;24023;51.280;7.148;2022-08-01T18:10:08;22.1;84.4
38221;DHT22;24023;51.280;7.148;2022-08-01T18:15:08;21.7;84.7
38221;DHT22;24023;51.280;7.148;2022-08-01T18:20:09;21.7;87.5
38221;DHT22;24023;51.280;7.148;2022-08-01T18:25:08;21.7;87.5
38221;DHT22;24023;51.280;7.148;2022-08-01T18:30:10;21.2;90.0
38221;DHT22;24023;51.280;7.148;2022-08-01T18:35:07;21.2;90.0
38221;DHT22;24023;51.280;7.148;2022-08-01T18:40:09;21.2;90.0
38221;DHT22;24023;51.280;7.148;2022-08-01T18:45:11;20.9;91.0
38221;DHT22;24023;51.280;7.148;2022-08-01T18:50:08;20.9;91.0
38221;DHT22;24023;51.280;7.148;2022-08-01T18:55:08;20.5;91.7
38221;DHT22;24023;51.280;7.148;2022-08-01T19:00:15;20.5;91.7
38221;DHT22;24023;51.280;7.148;2022-08-01T19:05:08;20.5;91.7
38221;DHT22;24023;51.280;7.148;2022-08-01T19:10:08;20.2;92.0
38221;DHT22;24023;51.280;7.148;2022-08-01T19:15:08;20.2;92.0
38221;DHT22;24023;51.280;7.148;2022-08-01T19:20:08;20.1;92.2
38221;DHT22;24023;51.280;7.148;2022-08-01T19:25:08;20.1;92.2
38221;DHT22;24023;51.280;7.148;2022-08-01T19:30:10;19.9;92.6
38221;DHT22;24023;51.280;7.148;2022-08-01T19:35:09;19.9;92.6
38221;DHT22;24023;51.280;7.148;2022-08-01T19:40:09;19.9;92.6
38221;DHT22;24023;51.280;7.148;2022-08-01T19:45:10;19.4;93.0
38221;DHT22;24023;51.280;7.148;2022-08-01T19:50:08;19.4;93.0
38221;DHT22;24023;51.280;7.148;2022-08-01T19:55:07;19.2;93.9
38221;DHT22;24023;51.280;7.148;2022-08-01T20:00:12;19.0;93.5
38221;DHT22;24023;51.280;7.148;2022-08-01T20:05:08;19.0;93.5
38221;DHT22;24023;51.280;7.148;2022-08-01T20:10:08;18.7;93.2
38221;DHT22;24023;51.280;7.148;2022-08-01T20:15:09;18.7;93.2
38221;DHT22;24023;51.280;7.148;2022-08-01T20:20:09;18.7;93.2
38221;DHT22;24023;51.280;7.148;2022-08-01T20:25:08;18.8;93.3
38221;DHT22;24023;51.280;7.148;2022-08-01T20:30:11;18.8;93.3
38221;DHT22;24023;51.280;7.148;2022-08-01T20:35:08;18.6;93.9
38221;DHT22;24023;51.280;7.148;2022-08-01T20:40:09;18.6;93.7
38221;DHT22;24023;51.280;7.148;2022-08-01T20:45:11;18.6;93.7
38221;DHT22;24023;51.280;7.148;2022-08-01T20:55:06;18.4;94.1
38221;DHT22;24023;51.280;7.148;2022-08-01T21:00:12;18.4;94.1
38221;DHT22;24023;51.280;7.148;2022-08-01T21:05:08;18.4;93.7
38221;DHT22;24023;51.280;7.148;2022-08-01T21:10:09;18.4;93.7
38221;DHT22;24023;51.280;7.148;2022-08-01T21:15:12;18.8;92.9
38221;DHT22;24023;51.280;7.148;2022-08-01T21:20:11;18.8;92.9
38221;DHT22;24023;51.280;7.148;2022-08-01T21:25:08;19.0;92.2
38221;DHT22;24023;51.280;7.148;2022-08-01T21:30:10;19.0;92.2
38221;DHT22;24023;51.280;7.148;2022-08-01T21:35:07;19.0;92.2
38221;DHT22;24023;51.280;7.148;2022-08-01T21:40:09;18.2;93.1
38221;DHT22;24023;51.280;7.148;2022-08-01T21:45:09;18.2;93.1
38221;DHT22;24023;51.280;7.148;2022-08-01T21:50:09;17.9;95.2
38221;DHT22;24023;51.280;7.148;2022-08-01T21:55:15;17.9;95.2
38221;DHT22;24023;51.280;7.148;2022-08-01T22:00:22;17.8;94.6
38221;DHT22;24023;51.280;7.148;2022-08-01T22:05:10;17.8;94.6
38221;DHT22;24023;51.280;7.148;2022-08-01T22:10:09;17.8;94.6
38221;DHT22;24023;51.280;7.148;2022-08-01T22:15:09;17.6;94.7
38221;DHT22;24023;51.280;7.148;2022-08-01T22:20:08;17.6;94.7
38221;DHT22;24023;51.280;7.148;2022-08-01T22:25:07;17.3;94.6
38221;DHT22;24023;51.280;7.148;2022-08-01T22:30:11;17.3;94.6
38221;DHT22;24023;51.280;7.148;2022-08-01T22:35:08;17.3;94.6
38221;DHT22;24023;51.280;7.148;2022-08-01T22:40:10;17.1;94.7
38221;DHT22;24023;51.280;7.148;2022-08-01T22:45:17;17.1;94.7
38221;DHT22;24023;51.280;7.148;2022-08-01T22:50:15;17.4;94.8
38221;DHT22;24023;51.280;7.148;2022-08-01T22:55:08;17.4;94.8
38221;DHT22;24023;51.280;7.148;2022-08-01T23:00:12;17.5;93.7
38221;DHT22;24023;51.280;7.148;2022-08-01T23:05:07;17.5;93.7
38221;DHT22;24023;51.280;7.148;2022-08-01T23:10:08;17.5;93.7
38221;DHT22;24023;51.280;7.148;2022-08-01T23:15:10;17.3;93.8
38221;DHT22;24023;51.280;7.148;2022-08-01T23:20:10;17.1;95.0
38221;DHT22;24023;51.280;7.148;2022-08-01T23:25:10;17.1;95.0
38221;DHT22;24023;51.280;7.148;2022-08-01T23:30:10;17.1;95.0
38221;DHT22;24023;51.280;7.148;2022-08-01T23:35:07;16.8;95.7
38221;DHT22;24023;51.280;7.148;2022-08-01T23:40:09;16.8;95.7
38221;DHT22;24023;51.280;7.148;2022-08-01T23:45:10;16.5;95.5
38221;DHT22;24023;51.280;7.148;2022-08-01T23:50:08;16.5;95.5
38221;DHT22;24023;51.280;7.148;2022-08-01T23:55:07;16.6;95.4
